createdAt,value
2023-03-04T00:00:00.788Z,1.00
2023-03-04T00:02:27.637Z,1.00
2023-03-04T00:04:54.440Z,1.00
2023-03-04T00:07:21.324Z,1.10
2023-03-04T00:09:48.246Z,1.20
2023-03-04T00:12:15.246Z,1.10
2023-03-04T00:14:42.229Z,1.20
2023-03-04T00:17:09.115Z,1.20
2023-03-04T00:19:36.263Z,1.30
2023-03-04T00:22:04.568Z,1.30
2023-03-04T00:24:32.333Z,1.40
2023-03-04T00:26:59.391Z,1.40
2023-03-04T00:29:26.797Z,1.40
2023-03-04T00:31:54.228Z,1.50
2023-03-04T00:34:21.380Z,1.60
2023-03-04T00:36:48.251Z,1.60
2023-03-04T00:39:15.639Z,1.60
2023-03-04T00:41:42.771Z,1.70
2023-03-04T00:44:09.856Z,1.70
2023-03-04T00:46:36.742Z,1.70
2023-03-04T00:49:03.861Z,1.70
2023-03-04T00:51:30.715Z,1.80
2023-03-04T00:53:59.720Z,1.80
2023-03-04T00:56:28.018Z,1.80
2023-03-04T00:58:55.294Z,1.90
2023-03-04T01:01:22.429Z,1.80
2023-03-04T01:03:49.400Z,1.90
2023-03-04T01:06:16.509Z,1.90
2023-03-04T01:08:43.436Z,1.90
2023-03-04T01:11:10.368Z,1.80
2023-03-04T01:13:37.185Z,1.80
2023-03-04T01:16:05.079Z,1.90
2023-03-04T01:18:32.334Z,1.90
2023-03-04T01:20:59.246Z,1.90
2023-03-04T01:23:26.157Z,1.90
2023-03-04T01:25:53.219Z,1.90
2023-03-04T01:28:20.074Z,1.90
2023-03-04T01:30:46.986Z,1.90
2023-03-04T01:33:13.919Z,1.90
2023-03-04T01:35:40.752Z,1.90
2023-03-04T01:38:07.804Z,1.90
2023-03-04T01:40:34.854Z,1.90
2023-03-04T01:43:01.735Z,2.00
2023-03-04T01:45:29.722Z,2.00
2023-03-04T01:47:56.529Z,2.00
2023-03-04T01:50:33.804Z,2.00
2023-03-04T01:53:02.406Z,2.10
2023-03-04T01:55:30.789Z,2.10
2023-03-04T01:57:57.801Z,2.10
2023-03-04T02:00:35.138Z,2.10
2023-03-04T02:03:11.314Z,2.10
2023-03-04T02:05:42.211Z,2.10
2023-03-04T02:08:09.590Z,2.10
2023-03-04T02:10:37.035Z,2.10
2023-03-04T02:13:04.770Z,2.10
2023-03-04T02:15:32.241Z,2.10
2023-03-04T02:17:59.531Z,2.20
2023-03-04T02:20:48.550Z,2.10
2023-03-04T02:23:30.445Z,2.20
2023-03-04T02:26:21.651Z,2.20
2023-03-04T02:28:51.977Z,2.20
2023-03-04T02:31:36.076Z,2.20
2023-03-04T02:34:08.209Z,2.20
2023-03-04T02:36:36.506Z,2.30
2023-03-04T02:39:25.506Z,2.10
2023-03-04T02:41:55.635Z,2.10
2023-03-04T02:44:32.868Z,2.20
2023-03-04T02:46:59.648Z,2.20
2023-03-04T02:49:30.137Z,2.20
2023-03-04T02:52:08.394Z,2.10
2023-03-04T02:54:35.590Z,2.10
2023-03-04T02:57:06.967Z,2.10
2023-03-04T02:59:33.929Z,2.10
2023-03-04T03:02:00.798Z,2.10
2023-03-04T03:04:28.538Z,2.10
2023-03-04T03:06:55.666Z,2.20
2023-03-04T03:09:22.694Z,2.20
2023-03-04T03:11:49.518Z,2.20
2023-03-04T03:14:16.603Z,2.20
2023-03-04T03:16:43.474Z,2.20
2023-03-04T03:19:10.295Z,2.20
2023-03-04T03:21:37.101Z,2.20
2023-03-04T03:24:04.054Z,2.20
2023-03-04T03:26:30.886Z,2.20
2023-03-04T03:28:57.667Z,2.20
2023-03-04T03:31:24.518Z,2.20
2023-03-04T03:33:51.390Z,2.20
2023-03-04T03:36:18.222Z,2.20
2023-03-04T03:38:45.015Z,2.10
2023-03-04T03:41:11.825Z,2.10
2023-03-04T03:43:38.638Z,2.20
2023-03-04T03:46:05.634Z,2.20
2023-03-04T03:48:32.515Z,2.20
2023-03-04T03:50:59.295Z,2.20
2023-03-04T03:53:26.073Z,2.20
2023-03-04T03:55:52.910Z,2.30
2023-03-04T03:58:19.820Z,2.30
2023-03-04T04:00:46.626Z,2.30
2023-03-04T04:03:16.527Z,2.30
2023-03-04T04:05:43.541Z,2.30
2023-03-04T04:08:17.882Z,2.30
2023-03-04T04:10:45.075Z,2.30
2023-03-04T04:13:12.273Z,2.30
2023-03-04T04:15:40.049Z,2.30
2023-03-04T04:18:07.921Z,2.20
2023-03-04T04:20:35.992Z,2.30
2023-03-04T04:23:03.842Z,2.30
2023-03-04T04:25:30.795Z,2.30
2023-03-04T04:27:57.629Z,2.30
2023-03-04T04:30:24.782Z,2.40
2023-03-04T04:32:52.324Z,2.30
2023-03-04T04:35:19.492Z,2.30
2023-03-04T04:37:46.573Z,2.30
2023-03-04T04:40:14.162Z,2.30
2023-03-04T04:42:40.978Z,2.30
2023-03-04T04:45:08.770Z,2.30
2023-03-04T04:47:35.629Z,2.40
2023-03-04T04:50:03.320Z,2.40
2023-03-04T04:52:30.158Z,2.40
2023-03-04T04:54:57.063Z,2.40
2023-03-04T04:57:24.068Z,2.40
2023-03-04T04:59:50.898Z,2.40
2023-03-04T05:02:17.836Z,2.40
2023-03-04T05:04:44.608Z,2.40
2023-03-04T05:07:11.434Z,2.40
2023-03-04T05:09:38.444Z,2.40
2023-03-04T05:12:05.493Z,2.40
2023-03-04T05:14:32.316Z,2.40
2023-03-04T05:16:59.344Z,2.50
2023-03-04T05:19:26.192Z,2.40
2023-03-04T05:21:52.974Z,2.40
2023-03-04T05:24:20.012Z,2.40
2023-03-04T05:26:47.336Z,2.40
2023-03-04T05:29:14.195Z,2.40
2023-03-04T05:31:41.124Z,2.40
2023-03-04T05:34:07.957Z,2.40
2023-03-04T05:36:34.724Z,2.40
2023-03-04T05:39:01.555Z,2.40
2023-03-04T05:41:28.363Z,2.40
2023-03-04T05:43:56.447Z,2.30
2023-03-04T05:46:25.437Z,2.40
2023-03-04T05:48:54.481Z,2.40
2023-03-04T05:51:23.149Z,2.40
2023-03-04T05:53:50.213Z,2.40
2023-03-04T05:56:19.853Z,2.30
2023-03-04T05:58:49.506Z,2.40
2023-03-04T06:01:17.236Z,2.40
2023-03-04T06:03:44.598Z,2.40
2023-03-04T06:06:11.637Z,2.40
2023-03-04T06:08:38.678Z,2.40
2023-03-04T06:11:06.509Z,2.40
2023-03-04T06:13:34.724Z,2.40
2023-03-04T06:16:01.590Z,2.40
2023-03-04T06:18:29.385Z,2.40
2023-03-04T06:21:02.027Z,2.50
2023-03-04T06:23:30.196Z,2.50
2023-03-04T06:25:59.393Z,2.40
2023-03-04T06:28:26.483Z,2.50
2023-03-04T06:30:54.921Z,2.40
2023-03-04T06:33:22.029Z,2.50
2023-03-04T06:35:49.050Z,2.50
2023-03-04T06:38:15.929Z,2.50
2023-03-04T06:40:42.719Z,2.60
2023-03-04T06:43:09.581Z,2.60
2023-03-04T06:45:39.109Z,2.60
2023-03-04T06:48:06.417Z,2.60
2023-03-04T06:50:33.210Z,2.50
2023-03-04T06:52:59.957Z,2.60
2023-03-04T06:55:26.863Z,2.60
2023-03-04T06:57:53.630Z,2.60
2023-03-04T07:00:20.878Z,2.80
2023-03-04T07:02:47.733Z,2.70
2023-03-04T07:05:14.613Z,2.70
2023-03-04T07:07:41.551Z,2.70
2023-03-04T07:10:10.305Z,2.70
2023-03-04T07:12:37.315Z,2.80
2023-03-04T07:15:04.714Z,2.80
2023-03-04T07:17:31.550Z,2.80
2023-03-04T07:19:58.381Z,2.80
2023-03-04T07:22:25.215Z,2.80
2023-03-04T07:24:51.997Z,2.80
2023-03-04T07:27:18.785Z,2.80
2023-03-04T07:29:45.596Z,2.80
2023-03-04T07:32:12.656Z,2.80
2023-03-04T07:34:39.490Z,2.80
2023-03-04T07:37:06.288Z,2.90
2023-03-04T07:39:33.141Z,2.90
2023-03-04T07:42:00.273Z,2.90
2023-03-04T07:44:27.281Z,2.90
2023-03-04T07:46:54.115Z,2.90
2023-03-04T07:49:27.586Z,2.90
2023-03-04T07:51:54.390Z,3.00
2023-03-04T07:54:21.603Z,3.00
2023-03-04T07:56:48.410Z,3.00
2023-03-04T07:59:15.193Z,3.10
2023-03-04T08:01:43.228Z,3.00
2023-03-04T08:04:10.971Z,3.10
2023-03-04T08:06:40.810Z,3.10
2023-03-04T08:09:10.808Z,3.10
2023-03-04T08:11:38.497Z,3.10
2023-03-04T08:14:06.367Z,3.10
2023-03-04T08:16:33.520Z,3.20
2023-03-04T08:19:02.995Z,3.20
2023-03-04T08:21:30.666Z,3.20
2023-03-04T08:24:06.922Z,3.30
2023-03-04T08:26:43.074Z,3.30
2023-03-04T08:29:15.086Z,3.40
2023-03-04T08:31:42.068Z,3.40
2023-03-04T08:34:10.478Z,3.50
2023-03-04T08:36:37.578Z,3.50
2023-03-04T08:39:05.763Z,3.50
2023-03-04T08:41:33.169Z,3.60
2023-03-04T08:44:01.325Z,3.60
2023-03-04T08:46:28.844Z,3.60
2023-03-04T08:48:55.702Z,3.50
2023-03-04T08:51:22.609Z,3.60
2023-03-04T08:53:49.402Z,3.70
2023-03-04T08:56:18.240Z,3.70
2023-03-04T08:58:45.100Z,3.70
2023-03-04T09:01:14.230Z,3.70
2023-03-04T09:03:41.932Z,3.70
2023-03-04T09:06:11.911Z,3.80
2023-03-04T09:08:38.697Z,3.90
2023-03-04T09:11:06.462Z,3.90
2023-03-04T09:13:34.349Z,4.00
2023-03-04T09:16:02.218Z,4.20
2023-03-04T09:18:29.386Z,4.30
2023-03-04T09:20:56.222Z,4.30
2023-03-04T09:23:23.214Z,4.30
2023-03-04T09:25:50.161Z,4.30
2023-03-04T09:28:19.049Z,4.40
2023-03-04T09:30:46.205Z,4.40
2023-03-04T09:33:13.824Z,4.50
2023-03-04T09:35:40.993Z,4.60
2023-03-04T09:38:08.405Z,5.00
2023-03-04T09:40:44.398Z,5.60
2023-03-04T09:43:22.520Z,6.60
2023-03-04T09:45:57.514Z,7.40
2023-03-04T09:48:29.930Z,8.20
2023-03-04T09:51:22.289Z,8.80
2023-03-04T09:54:09.744Z,9.50
2023-03-04T09:56:42.061Z,10.20
2023-03-04T09:59:17.405Z,10.20
2023-03-04T10:01:58.172Z,9.70
2023-03-04T10:04:39.995Z,9.10
2023-03-04T10:07:20.890Z,8.50
2023-03-04T10:10:02.123Z,8.00
2023-03-04T10:12:34.360Z,7.50
2023-03-04T10:15:31.898Z,7.30
2023-03-04T10:18:25.474Z,7.20
2023-03-04T10:21:03.797Z,7.10
2023-03-04T10:23:34.741Z,7.10
2023-03-04T10:26:16.886Z,6.90
2023-03-04T10:28:44.118Z,6.90
2023-03-04T10:31:27.284Z,6.80
2023-03-04T10:33:54.515Z,6.70
2023-03-04T10:36:39.646Z,6.70
2023-03-04T10:39:12.338Z,6.80
2023-03-04T10:41:45.664Z,6.90
2023-03-04T10:44:18.422Z,6.90
2023-03-04T10:46:49.247Z,6.80
2023-03-04T10:49:20.023Z,6.70
2023-03-04T10:52:04.482Z,6.70
2023-03-04T10:54:48.847Z,6.60
2023-03-04T10:57:20.789Z,6.50
2023-03-04T10:59:56.054Z,6.50
2023-03-04T11:02:32.341Z,6.50
2023-03-04T11:05:35.220Z,6.30
2023-03-04T11:08:02.053Z,6.20
2023-03-04T11:10:40.895Z,6.00
2023-03-04T11:13:24.544Z,5.90
2023-03-04T11:16:03.523Z,5.80
2023-03-04T11:18:43.861Z,5.80
2023-03-04T11:21:24.697Z,5.80
2023-03-04T11:24:27.629Z,6.00
2023-03-04T11:27:18.307Z,6.10
2023-03-04T11:30:22.675Z,6.10
2023-03-04T11:32:55.124Z,6.10
2023-03-04T11:35:52.298Z,6.10
2023-03-04T11:38:33.415Z,6.10
2023-03-04T11:41:25.120Z,6.10
2023-03-04T11:43:52.041Z,6.10
2023-03-04T11:46:51.623Z,6.10
2023-03-04T11:49:48.337Z,6.10
2023-03-04T11:52:45.599Z,6.00
2023-03-04T11:55:46.903Z,5.90
2023-03-04T11:58:28.702Z,5.90
2023-03-04T12:01:39.624Z,5.80
2023-03-04T12:04:24.827Z,5.80
2023-03-04T12:07:31.343Z,5.80
2023-03-04T12:10:28.280Z,5.90
2023-03-04T12:13:30.434Z,6.10
2023-03-04T12:16:49.847Z,6.30
2023-03-04T12:19:16.501Z,6.20
2023-03-04T12:22:22.999Z,6.20
2023-03-04T12:25:19.190Z,6.10
2023-03-04T12:28:34.087Z,6.10
2023-03-04T12:31:28.362Z,6.10
2023-03-04T12:34:31.599Z,6.00
2023-03-04T12:37:23.388Z,6.00
2023-03-04T12:40:41.206Z,5.90
2023-03-04T12:43:22.441Z,5.80
2023-03-04T12:45:57.986Z,5.70
2023-03-04T12:48:33.532Z,5.70
2023-03-04T12:51:18.824Z,5.70
2023-03-04T12:54:29.787Z,5.60
2023-03-04T12:57:25.128Z,5.60
2023-03-04T13:00:29.829Z,5.50
2023-03-04T13:03:31.658Z,5.50
2023-03-04T13:06:24.421Z,5.40
2023-03-04T13:09:04.736Z,5.50
2023-03-04T13:12:03.877Z,5.50
2023-03-04T13:14:32.530Z,5.70
2023-03-04T13:17:18.258Z,5.70
2023-03-04T13:19:47.756Z,5.80
2023-03-04T13:22:42.558Z,5.90
2023-03-04T13:25:33.850Z,5.90
2023-03-04T13:28:00.603Z,6.00
2023-03-04T13:30:35.754Z,6.10
2023-03-04T13:33:08.658Z,6.10
2023-03-04T13:35:50.233Z,6.10
2023-03-04T13:38:27.530Z,6.10
2023-03-04T13:41:24.782Z,6.10
2023-03-04T13:44:04.058Z,6.00
2023-03-04T13:46:43.605Z,5.90
2023-03-04T13:49:24.660Z,5.80
2023-03-04T13:51:52.334Z,5.70
2023-03-04T13:54:30.472Z,5.60
2023-03-04T13:57:20.672Z,5.60
2023-03-04T13:59:56.866Z,5.60
2023-03-04T14:02:27.159Z,5.70
2023-03-04T14:04:53.901Z,5.70
2023-03-04T14:07:29.681Z,5.80
2023-03-04T14:10:05.081Z,5.90
2023-03-04T14:12:51.322Z,5.90
2023-03-04T14:15:21.898Z,6.00
2023-03-04T14:17:54.713Z,6.00
2023-03-04T14:20:33.397Z,6.00
2023-03-04T14:23:04.348Z,6.00
2023-03-04T14:25:36.703Z,5.90
2023-03-04T14:28:16.653Z,5.80
2023-03-04T14:30:52.281Z,5.70
2023-03-04T14:33:25.024Z,5.70
2023-03-04T14:36:00.965Z,5.70
2023-03-04T14:38:36.802Z,5.60
2023-03-04T14:41:20.882Z,5.60
2023-03-04T14:44:22.486Z,5.60
2023-03-04T14:47:08.828Z,5.50
2023-03-04T14:49:38.650Z,5.50
2023-03-04T14:52:06.822Z,5.50
2023-03-04T14:54:41.903Z,5.50
2023-03-04T14:57:26.576Z,5.40
2023-03-04T14:59:54.348Z,5.40
2023-03-04T15:02:39.310Z,5.20
2023-03-04T15:05:26.465Z,5.10
2023-03-04T15:08:01.513Z,5.10
2023-03-04T15:10:33.878Z,5.10
2023-03-04T15:13:05.450Z,5.00
2023-03-04T15:15:46.572Z,5.00
2023-03-04T15:18:24.009Z,4.90
2023-03-04T15:21:19.648Z,4.90
2023-03-04T15:23:47.009Z,4.90
2023-03-04T15:26:14.476Z,4.80
2023-03-04T15:28:42.368Z,4.80
2023-03-04T15:31:21.862Z,4.80
2023-03-04T15:33:49.517Z,5.00
2023-03-04T15:36:21.036Z,4.80
2023-03-04T15:38:52.351Z,4.80
2023-03-04T15:41:26.307Z,4.80
2023-03-04T15:43:54.472Z,4.80
2023-03-04T15:46:21.899Z,4.80
2023-03-04T15:48:49.345Z,4.80
2023-03-04T15:51:22.161Z,4.80
2023-03-04T15:53:53.021Z,4.80
2023-03-04T15:56:27.880Z,4.80
2023-03-04T15:58:59.329Z,4.90
2023-03-04T16:01:26.263Z,4.90
2023-03-04T16:03:53.927Z,4.90
2023-03-04T16:06:23.514Z,4.90
2023-03-04T16:08:52.113Z,4.80
2023-03-04T16:11:25.873Z,4.80
2023-03-04T16:13:52.868Z,4.80
2023-03-04T16:16:20.213Z,4.80
2023-03-04T16:18:47.102Z,4.80
2023-03-04T16:21:19.056Z,4.80
2023-03-04T16:23:49.884Z,4.90
2023-03-04T16:26:23.494Z,4.80
2023-03-04T16:28:52.018Z,4.80
2023-03-04T16:31:22.032Z,4.80
2023-03-04T16:33:49.585Z,4.80
2023-03-04T16:36:24.848Z,4.80
2023-03-04T16:38:55.477Z,4.80
2023-03-04T16:41:28.010Z,4.80
2023-03-04T16:43:55.999Z,4.70
2023-03-04T16:46:23.996Z,4.80
2023-03-04T16:48:50.845Z,4.70
2023-03-04T16:51:21.629Z,4.60
2023-03-04T16:54:01.989Z,4.70
2023-03-04T16:56:29.415Z,4.70
2023-03-04T16:58:56.212Z,4.70
2023-03-04T17:01:28.943Z,4.70
2023-03-04T17:03:56.398Z,4.70
2023-03-04T17:06:24.505Z,4.70
2023-03-04T17:08:51.784Z,4.70
2023-03-04T17:11:22.669Z,4.70
2023-03-04T17:13:49.892Z,4.70
2023-03-04T17:16:17.524Z,4.70
2023-03-04T17:18:46.004Z,4.70
2023-03-04T17:21:20.603Z,4.70
2023-03-04T17:23:47.533Z,4.70
2023-03-04T17:26:15.533Z,4.70
2023-03-04T17:28:43.042Z,4.70
2023-03-04T17:31:17.726Z,4.70
2023-03-04T17:33:46.448Z,4.60
2023-03-04T17:36:16.020Z,4.60
2023-03-04T17:38:43.552Z,4.50
2023-03-04T17:41:17.309Z,4.50
2023-03-04T17:43:46.776Z,4.50
2023-03-04T17:46:16.948Z,4.50
2023-03-04T17:48:44.522Z,4.50
2023-03-04T17:51:12.283Z,4.50
2023-03-04T17:53:39.559Z,4.60
2023-03-04T17:56:08.993Z,4.50
2023-03-04T17:58:36.802Z,4.40
2023-03-04T18:01:14.793Z,4.40
2023-03-04T18:03:41.636Z,4.50
2023-03-04T18:06:08.429Z,4.40
2023-03-04T18:08:35.212Z,4.40
2023-03-04T18:11:02.476Z,4.30
2023-03-04T18:13:29.448Z,4.40
2023-03-04T18:15:56.812Z,4.30
2023-03-04T18:18:23.735Z,4.30
2023-03-04T18:20:57.407Z,4.30
2023-03-04T18:23:24.288Z,4.30
2023-03-04T18:25:51.202Z,4.30
2023-03-04T18:28:18.101Z,4.30
2023-03-04T18:30:44.983Z,4.30
2023-03-04T18:33:12.158Z,4.30
2023-03-04T18:35:39.183Z,4.30
2023-03-04T18:38:06.038Z,4.30
2023-03-04T18:40:32.948Z,4.30
2023-03-04T18:43:00.172Z,4.30
2023-03-04T18:45:27.895Z,4.30
2023-03-04T18:47:54.858Z,4.30
2023-03-04T18:50:22.024Z,4.30
2023-03-04T18:52:52.562Z,4.30
2023-03-04T18:55:21.484Z,4.30
2023-03-04T18:57:53.496Z,4.30
2023-03-04T19:00:23.744Z,4.30
2023-03-04T19:03:06.589Z,4.30
2023-03-04T19:05:34.379Z,4.30
2023-03-04T19:08:01.323Z,4.30
2023-03-04T19:10:29.106Z,4.30
2023-03-04T19:12:57.547Z,4.20
2023-03-04T19:15:24.530Z,4.20
2023-03-04T19:17:52.187Z,4.20
2023-03-04T19:20:19.304Z,4.20
2023-03-04T19:22:46.344Z,4.10
2023-03-04T19:25:14.229Z,4.10
2023-03-04T19:27:41.021Z,4.10
2023-03-04T19:30:08.880Z,4.10
2023-03-04T19:32:35.797Z,4.10
2023-03-04T19:35:02.904Z,4.10
2023-03-04T19:37:30.195Z,4.10
2023-03-04T19:39:57.020Z,4.10
2023-03-04T19:42:24.292Z,4.10
2023-03-04T19:44:51.527Z,4.10
2023-03-04T19:47:18.428Z,4.10
2023-03-04T19:49:45.392Z,4.10
2023-03-04T19:52:12.315Z,4.10
2023-03-04T19:54:39.169Z,4.10
2023-03-04T19:57:05.982Z,4.10
2023-03-04T19:59:34.753Z,4.10
2023-03-04T20:02:02.016Z,4.10
2023-03-04T20:04:28.985Z,4.10
2023-03-04T20:06:55.833Z,4.00
2023-03-04T20:09:22.967Z,4.00
2023-03-04T20:11:59.189Z,4.00
2023-03-04T20:14:27.719Z,4.00
2023-03-04T20:16:58.678Z,4.00
2023-03-04T20:19:25.452Z,4.00
2023-03-04T20:21:52.251Z,4.00
2023-03-04T20:24:19.999Z,3.90
2023-03-04T20:26:46.824Z,3.90
2023-03-04T20:29:13.686Z,3.80
2023-03-04T20:31:40.855Z,3.90
2023-03-04T20:34:08.534Z,3.80
2023-03-04T20:36:35.948Z,3.90
2023-03-04T20:39:08.194Z,3.90
2023-03-04T20:41:39.796Z,3.90
2023-03-04T20:44:06.847Z,3.90
2023-03-04T20:46:46.132Z,3.80
2023-03-04T20:49:23.293Z,3.80
2023-03-04T20:51:52.368Z,3.90
2023-03-04T20:54:19.721Z,3.80
2023-03-04T20:56:47.544Z,3.80
2023-03-04T20:59:14.570Z,3.80
2023-03-04T21:01:44.438Z,3.70
2023-03-04T21:04:11.875Z,3.80
2023-03-04T21:06:40.448Z,3.90
2023-03-04T21:09:14.720Z,3.70
2023-03-04T21:11:42.603Z,3.70
2023-03-04T21:14:23.055Z,3.70
2023-03-04T21:16:57.658Z,3.70
2023-03-04T21:19:36.438Z,3.70
2023-03-04T21:22:04.393Z,3.70
2023-03-04T21:24:35.487Z,3.70
2023-03-04T21:27:04.615Z,3.60
2023-03-04T21:29:31.813Z,3.60
2023-03-04T21:32:23.240Z,3.60
2023-03-04T21:34:52.559Z,3.50
2023-03-04T21:37:21.087Z,3.50
2023-03-04T21:39:48.061Z,3.60
2023-03-04T21:42:14.942Z,3.60
2023-03-04T21:44:50.908Z,3.60
2023-03-04T21:47:22.383Z,3.60
2023-03-04T21:49:50.067Z,3.60
2023-03-04T21:52:19.381Z,3.60
2023-03-04T21:54:46.555Z,3.50
2023-03-04T21:57:14.244Z,3.50
2023-03-04T21:59:41.230Z,3.60
2023-03-04T22:02:16.057Z,3.50
2023-03-04T22:04:43.019Z,3.50
2023-03-04T22:07:10.172Z,3.50
2023-03-04T22:09:37.249Z,3.40
2023-03-04T22:12:04.225Z,3.50
2023-03-04T22:14:32.109Z,3.50
2023-03-04T22:16:59.211Z,3.50
2023-03-04T22:19:31.287Z,3.50
2023-03-04T22:21:59.263Z,3.50
2023-03-04T22:24:26.311Z,3.40
2023-03-04T22:26:53.511Z,3.40
2023-03-04T22:29:20.383Z,3.50
2023-03-04T22:31:47.827Z,3.50
2023-03-04T22:34:15.820Z,3.50
2023-03-04T22:36:46.433Z,3.50
2023-03-04T22:39:19.169Z,3.50
2023-03-04T22:41:46.700Z,3.50
2023-03-04T22:44:14.096Z,3.50
2023-03-04T22:46:41.682Z,3.40
2023-03-04T22:49:11.873Z,3.40
2023-03-04T22:51:44.063Z,3.40
2023-03-04T22:54:14.124Z,3.40
2023-03-04T22:56:41.103Z,3.40
2023-03-04T22:59:08.084Z,3.40
2023-03-04T23:01:35.110Z,3.40
2023-03-04T23:04:02.609Z,3.40
2023-03-04T23:06:30.547Z,3.40
2023-03-04T23:09:03.070Z,3.40
2023-03-04T23:11:35.079Z,3.30
2023-03-04T23:14:06.365Z,3.40
2023-03-04T23:16:37.173Z,3.30
2023-03-04T23:19:05.893Z,3.50
2023-03-04T23:21:33.958Z,3.50
2023-03-04T23:24:06.889Z,3.30
2023-03-04T23:26:39.852Z,3.40
2023-03-04T23:29:11.080Z,3.40
2023-03-04T23:31:37.921Z,3.30
2023-03-04T23:34:04.989Z,3.30
2023-03-04T23:36:35.145Z,3.20
2023-03-04T23:39:04.120Z,3.20
2023-03-04T23:41:32.829Z,3.10
2023-03-04T23:44:01.260Z,3.00
2023-03-04T23:46:29.212Z,3.00
2023-03-04T23:48:56.381Z,3.00
2023-03-04T23:51:28.290Z,2.90
2023-03-04T23:53:56.360Z,2.90
2023-03-04T23:56:27.731Z,2.90
2023-03-04T23:58:55.400Z,3.00
